Time;durP1;ratioP1;P1;durP2;ratioP2;P2;SDS_P1;SDS_P2;PMS_P1;PMS_P2;Temp;Humidity;BMP_temperature;BMP_pressure;BME280_temperature;BME280_humidity;BME280_pressure;Samples;Min_cycle;Max_cycle;Signal;HPM_P1;HPM_P2
2021/07/25 00:01:05;;;;;;;23.13;19.00;;;21.20;92.40;;;;;;4987261;28;20042;-84
2021/07/25 00:03:32;;;;;;;22.48;19.65;;;21.20;92.40;;;;;;4978793;28;20112;-84
2021/07/25 00:05:57;;;;;;;23.48;19.33;;;21.10;92.40;;;;;;5012895;28;20018;-83
2021/07/25 00:08:23;;;;;;;24.63;19.95;;;21.10;92.40;;;;;;5002133;28;20031;-84
2021/07/25 00:10:49;;;;;;;23.40;19.35;;;21.10;92.50;;;;;;4974000;28;20054;-84
2021/07/25 00:13:16;;;;;;;22.75;19.00;;;21.10;92.50;;;;;;5011130;28;20034;-83
2021/07/25 00:15:43;;;;;;;22.23;18.88;;;21.10;92.50;;;;;;5006663;28;20032;-83
2021/07/25 00:18:09;;;;;;;23.35;19.88;;;21.10;92.50;;;;;;5000296;28;20025;-83
2021/07/25 00:20:35;;;;;;;23.92;19.30;;;21.10;92.60;;;;;;4977729;28;20066;-83
2021/07/25 00:23:01;;;;;;;23.45;19.83;;;21.00;92.60;;;;;;4994050;28;20065;-83
2021/07/25 00:25:27;;;;;;;22.10;19.70;;;21.10;92.60;;;;;;4977348;28;20092;-83
2021/07/25 00:27:54;;;;;;;22.55;20.17;;;21.00;92.60;;;;;;4994025;28;20117;-83
2021/07/25 00:30:21;;;;;;;23.02;19.10;;;21.00;92.60;;;;;;4974616;28;20030;-83
2021/07/25 00:32:47;;;;;;;22.48;20.08;;;21.00;92.60;;;;;;4958226;28;20015;-83
2021/07/25 00:35:14;;;;;;;22.50;19.50;;;21.00;92.60;;;;;;4988711;28;20452;-83
2021/07/25 00:37:43;;;;;;;22.83;18.95;;;21.00;92.60;;;;;;4990634;28;20087;-84
2021/07/25 00:40:32;;;;;;;20.17;17.63;;;21.00;92.60;;;;;;5003535;28;20030;-83
2021/07/25 00:42:58;;;;;;;22.60;19.23;;;20.90;92.60;;;;;;4988961;28;20391;-83
2021/07/25 00:45:23;;;;;;;21.98;19.67;;;20.90;92.60;;;;;;4990250;28;20014;-83
2021/07/25 00:47:49;;;;;;;22.23;19.08;;;20.90;92.60;;;;;;4990305;28;20041;-83
2021/07/25 00:50:16;;;;;;;22.23;19.83;;;20.90;92.60;;;;;;4991311;28;20030;-84
2021/07/25 00:52:42;;;;;;;22.65;18.95;;;20.80;92.70;;;;;;4994796;28;20019;-84
2021/07/25 00:55:09;;;;;;;23.27;18.65;;;20.80;92.70;;;;;;4969266;28;20054;-84
2021/07/25 00:57:37;;;;;;;20.00;17.80;;;20.80;92.70;;;;;;4972403;28;20019;-84
2021/07/25 01:00:07;;;;;;;22.80;18.83;;;20.80;92.80;;;;;;4977456;28;20081;-84
2021/07/25 01:02:41;;;;;;;22.65;19.65;;;20.80;92.80;;;;;;4980296;28;20503;-83
2021/07/25 01:05:11;;;;;;;21.73;18.90;;;20.80;92.80;;;;;;4996762;28;20026;-84
2021/07/25 01:08:15;;;;;;;21.23;18.42;;;20.80;92.80;;;;;;4981705;28;20082;-83
2021/07/25 01:10:44;;;;;;;22.13;18.38;;;20.80;92.80;;;;;;4971438;28;20073;-84
2021/07/25 01:13:23;;;;;;;20.67;18.40;;;20.70;92.70;;;;;;4998730;28;20030;-84
2021/07/25 01:15:50;;;;;;;22.40;18.85;;;20.70;92.80;;;;;;5014105;28;20069;-83
2021/07/25 01:18:17;;;;;;;20.67;18.33;;;20.70;92.80;;;;;;5000675;28;20471;-83
2021/07/25 01:20:43;;;;;;;23.80;20.27;;;20.70;92.80;;;;;;4978563;28;20496;-84
2021/07/25 01:23:09;;;;;;;23.48;19.00;;;20.60;92.80;;;;;;4993000;28;20022;-84
2021/07/25 01:25:35;;;;;;;23.83;19.88;;;20.60;92.80;;;;;;4976853;28;20439;-83
2021/07/25 01:28:09;;;;;;;25.00;20.15;;;20.60;92.90;;;;;;4970561;28;20110;-84
2021/07/25 01:30:39;;;;;;;21.65;18.52;;;20.50;93.10;;;;;;4963757;28;20057;-84
2021/07/25 01:33:12;;;;;;;22.20;19.83;;;20.50;93.10;;;;;;4994111;28;20109;-83
2021/07/25 01:35:40;;;;;;;23.08;19.70;;;20.40;93.30;;;;;;4980626;28;20050;-84
2021/07/25 01:38:09;;;;;;;22.63;19.60;;;20.40;93.30;;;;;;4976606;28;20479;-83
2021/07/25 01:40:34;;;;;;;20.88;18.65;;;20.40;93.40;;;;;;4992359;28;20034;-83
2021/07/25 01:43:00;;;;;;;22.00;19.58;;;20.30;93.30;;;;;;4991890;28;20056;-83
2021/07/25 01:45:26;;;;;;;22.73;20.23;;;20.30;93.50;;;;;;4959512;28;20420;-84
2021/07/25 01:47:52;;;;;;;22.85;19.45;;;20.30;93.60;;;;;;4976248;28;20034;-83
2021/07/25 01:50:18;;;;;;;25.02;21.50;;;20.30;93.60;;;;;;4956683;28;20027;-84
2021/07/25 01:52:44;;;;;;;23.48;20.15;;;20.30;93.70;;;;;;4979287;28;20027;-83
2021/07/25 01:56:06;;;;;;;22.85;20.45;;;20.30;93.80;;;;;;4971596;28;20030;-83
2021/07/25 01:58:31;;;;;;;21.88;19.40;;;20.30;93.80;;;;;;4991223;28;20049;-83
2021/07/25 02:00:57;;;;;;;24.05;19.65;;;20.30;93.80;;;;;;4992158;28;20480;-83
2021/07/25 02:03:25;;;;;;;23.45;20.88;;;20.40;93.80;;;;;;4975810;28;20089;-83
2021/07/25 02:05:50;;;;;;;23.15;20.70;;;20.40;93.80;;;;;;4982459;28;20031;-83
2021/07/25 02:08:17;;;;;;;24.10;21.00;;;20.40;94.00;;;;;;5004627;28;20510;-83
2021/07/25 02:10:52;;;;;;;23.73;20.98;;;20.40;93.70;;;;;;4996726;28;20480;-83
2021/07/25 02:13:20;;;;;;;22.77;20.27;;;20.40;93.80;;;;;;4974526;28;20030;-83
2021/07/25 02:15:46;;;;;;;21.85;19.50;;;20.30;93.70;;;;;;4979784;28;20034;-83
2021/07/25 02:18:12;;;;;;;23.42;20.10;;;20.30;93.80;;;;;;4985759;28;20030;-83
2021/07/25 02:20:38;;;;;;;21.88;19.50;;;20.30;93.90;;;;;;4976207;28;20047;-83
2021/07/25 02:23:04;;;;;;;24.65;20.70;;;20.30;93.80;;;;;;5001160;28;20142;-83
2021/07/25 02:25:30;;;;;;;23.45;20.95;;;20.30;93.90;;;;;;4989990;28;20117;-83
2021/07/25 02:27:56;;;;;;;24.73;21.33;;;20.30;94.00;;;;;;4970045;28;20058;-83
2021/07/25 02:30:21;;;;;;;26.70;20.80;;;20.20;94.00;;;;;;4956582;28;20034;-83
2021/07/25 02:32:47;;;;;;;25.50;21.40;;;20.20;94.00;;;;;;4964774;28;20030;-83
2021/07/25 02:35:13;;;;;;;26.00;21.52;;;20.20;94.00;;;;;;4983797;28;20353;-83
2021/07/25 02:37:38;;;;;;;24.88;21.13;;;20.10;94.10;;;;;;4966410;28;20092;-83
2021/07/25 02:40:05;;;;;;;23.95;20.63;;;20.10;94.10;;;;;;4971199;28;20034;-83
2021/07/25 02:42:31;;;;;;;24.25;21.55;;;20.10;94.20;;;;;;4990948;28;20023;-83
2021/07/25 02:44:56;;;;;;;23.08;20.42;;;20.00;94.30;;;;;;4991426;28;20023;-83
2021/07/25 02:47:22;;;;;;;23.92;20.05;;;20.00;94.30;;;;;;4987936;28;20469;-83
2021/07/25 02:49:47;;;;;;;23.17;20.70;;;19.90;94.30;;;;;;4947144;28;20031;-83
2021/07/25 02:52:13;;;;;;;23.42;20.88;;;19.90;94.30;;;;;;4956063;28;20058;-83
2021/07/25 02:54:39;;;;;;;22.00;19.70;;;19.90;94.40;;;;;;4961953;28;20027;-83
2021/07/25 02:57:05;;;;;;;24.15;20.50;;;19.90;94.80;;;;;;4991711;28;20022;-83
2021/07/25 02:59:31;;;;;;;24.35;21.25;;;19.90;94.60;;;;;;4981669;28;20376;-82
2021/07/25 03:02:00;;;;;;;24.15;19.63;;;19.90;94.60;;;;;;4977943;28;20074;-83
2021/07/25 03:04:25;;;;;;;23.40;20.60;;;19.80;94.60;;;;;;4974226;28;20064;-83
2021/07/25 03:06:51;;;;;;;21.13;18.92;;;19.80;94.50;;;;;;4981592;28;20062;-83
2021/07/25 03:09:17;;;;;;;22.98;19.85;;;19.80;94.60;;;;;;4961958;28;20074;-83
2021/07/25 03:11:42;;;;;;;24.33;19.45;;;19.80;94.60;;;;;;4965647;28;20030;-83
2021/07/25 03:14:08;;;;;;;22.85;20.33;;;19.80;94.60;;;;;;4965473;28;20022;-83
2021/07/25 03:16:34;;;;;;;24.63;19.67;;;19.80;94.70;;;;;;4981512;28;20041;-83
2021/07/25 03:19:00;;;;;;;22.30;19.10;;;19.80;94.70;;;;;;4972115;28;20034;-83
2021/07/25 03:21:25;;;;;;;24.13;20.02;;;19.80;94.70;;;;;;5009788;28;20050;-83
2021/07/25 03:23:51;;;;;;;23.15;19.65;;;19.80;94.70;;;;;;4994712;28;20653;-83
2021/07/25 03:26:17;;;;;;;22.85;20.02;;;19.80;94.70;;;;;;4990954;28;20022;-83
2021/07/25 03:28:43;;;;;;;23.95;19.98;;;19.80;94.70;;;;;;4988988;28;20026;-83
2021/07/25 03:31:09;;;;;;;20.83;18.63;;;19.80;94.70;;;;;;4989607;28;20027;-83
2021/07/25 03:33:35;;;;;;;21.30;19.10;;;19.80;94.60;;;;;;4981521;28;20093;-83
2021/07/25 03:36:01;;;;;;;21.38;19.08;;;19.90;94.60;;;;;;4952432;28;20129;-83
2021/07/25 03:38:27;;;;;;;22.02;18.92;;;19.90;94.60;;;;;;4981821;28;20062;-83
2021/07/25 03:40:53;;;;;;;22.65;19.83;;;19.90;94.50;;;;;;4964544;28;20022;-83
2021/07/25 03:43:19;;;;;;;23.92;20.08;;;19.80;94.40;;;;;;4988351;28;20475;-83
2021/07/25 03:45:46;;;;;;;23.08;20.55;;;19.80;94.40;;;;;;4981245;28;20062;-83
2021/07/25 03:48:13;;;;;;;23.30;19.52;;;19.70;94.30;;;;;;4997418;28;20089;-83
2021/07/25 03:50:42;;;;;;;22.13;19.73;;;19.70;94.30;;;;;;4980660;28;20054;-83
2021/07/25 03:53:08;;;;;;;28.92;19.40;;;19.60;94.30;;;;;;4996128;28;20030;-83
2021/07/25 03:55:35;;;;;;;21.42;18.67;;;19.60;94.30;;;;;;4961946;28;20042;-84
2021/07/25 03:58:02;;;;;;;22.75;19.42;;;19.50;94.30;;;;;;4978933;28;20031;-83
2021/07/25 04:00:28;;;;;;;21.33;18.00;;;19.50;94.40;;;;;;4999707;28;20081;-83
2021/07/25 04:02:54;;;;;;;21.42;18.55;;;19.50;94.50;;;;;;4978503;28;20039;-83
2021/07/25 04:05:19;;;;;;;21.05;18.40;;;19.50;94.60;;;;;;4976179;28;20027;-84
2021/07/25 04:07:45;;;;;;;23.05;19.40;;;19.40;94.90;;;;;;5005896;28;20045;-84
2021/07/25 04:10:11;;;;;;;22.13;18.65;;;19.40;94.60;;;;;;4989016;28;20038;-84
2021/07/25 04:12:37;;;;;;;21.90;19.17;;;19.40;94.70;;;;;;4982252;28;20030;-85
2021/07/25 04:15:04;;;;;;;20.92;18.15;;;19.50;94.70;;;;;;4976656;28;20122;-85
2021/07/25 04:17:30;;;;;;;20.13;17.33;;;19.50;94.70;;;;;;4983749;28;20027;-85
2021/07/25 04:19:56;;;;;;;19.20;16.05;;;19.50;94.70;;;;;;4985781;23;20045;-85
2021/07/25 04:22:22;;;;;;;19.23;16.35;;;19.50;94.60;;;;;;5034245;28;20042;-84
2021/07/25 04:24:48;;;;;;;19.88;16.73;;;19.50;94.70;;;;;;5001965;28;20040;-85
2021/07/25 04:27:15;;;;;;;19.05;16.90;;;19.50;94.70;;;;;;5025439;28;20025;-85
2021/07/25 04:29:41;;;;;;;21.27;17.17;;;19.50;94.70;;;;;;5013939;28;20483;-85
2021/07/25 04:32:07;;;;;;;18.23;16.02;;;19.50;94.70;;;;;;5006190;28;20315;-85
2021/07/25 04:34:33;;;;;;;20.05;16.23;;;19.50;94.70;;;;;;5001888;28;20025;-85
2021/07/25 04:37:00;;;;;;;16.85;15.05;;;19.50;94.70;;;;;;5002149;28;20045;-85
2021/07/25 04:39:26;;;;;;;18.13;16.00;;;19.50;94.80;;;;;;5003411;28;20033;-85
2021/07/25 04:41:58;;;;;;;19.63;16.40;;;19.50;94.70;;;;;;4986540;28;20100;-85
2021/07/25 04:44:52;;;;;;;20.55;16.05;;;19.50;94.70;;;;;;5011223;28;20029;-85
2021/07/25 04:47:23;;;;;;;17.35;14.63;;;19.50;94.60;;;;;;5032358;28;20035;-85
2021/07/25 04:50:23;;;;;;;18.27;16.20;;;19.50;94.60;;;;;;5029803;28;20044;-85
2021/07/25 04:52:53;;;;;;;19.23;15.43;;;19.50;94.70;;;;;;4985683;28;20033;-84
2021/07/25 04:55:22;;;;;;;17.73;15.45;;;19.40;94.60;;;;;;5014268;28;20017;-85
2021/07/25 04:58:00;;;;;;;15.77;14.07;;;19.40;94.70;;;;;;5040997;28;20025;-84
2021/07/25 05:00:30;;;;;;;17.25;13.63;;;19.40;94.70;;;;;;5030032;28;20524;-84
2021/07/25 05:03:03;;;;;;;16.25;13.73;;;19.40;94.60;;;;;;5002726;28;20032;-85
2021/07/25 05:05:29;;;;;;;15.38;12.48;;;19.30;94.60;;;;;;5000958;28;20478;-84
2021/07/25 05:08:01;;;;;;;15.82;13.10;;;19.30;94.60;;;;;;4998427;28;20036;-85
2021/07/25 05:10:28;;;;;;;14.05;12.13;;;19.20;94.60;;;;;;5022959;28;20493;-85
2021/07/25 05:13:13;;;;;;;14.82;12.98;;;19.20;94.70;;;;;;5021865;28;20020;-85
2021/07/25 05:15:45;;;;;;;14.45;11.80;;;19.30;95.00;;;;;;5008475;28;20057;-84
2021/07/25 05:18:52;;;;;;;15.55;12.55;;;19.30;94.70;;;;;;5005910;28;20075;-84
2021/07/25 05:21:29;;;;;;;16.48;12.95;;;19.30;94.80;;;;;;4939042;29;20055;-84
2021/07/25 05:24:01;;;;;;;15.10;11.93;;;19.30;94.90;;;;;;4992069;28;20128;-85
2021/07/25 05:26:27;;;;;;;14.50;12.30;;;19.30;94.80;;;;;;4981498;28;20503;-84
2021/07/25 05:28:58;;;;;;;14.57;12.18;;;19.30;94.80;;;;;;4970240;28;20494;-85
2021/07/25 05:31:34;;;;;;;13.20;11.63;;;19.30;94.90;;;;;;4995737;28;20022;-85
2021/07/25 05:34:02;;;;;;;13.75;10.90;;;19.40;94.90;;;;;;4999396;28;20014;-85
2021/07/25 05:36:28;;;;;;;15.85;11.80;;;19.40;94.90;;;;;;4998846;28;20030;-85
2021/07/25 05:38:54;;;;;;;12.73;10.88;;;19.40;94.80;;;;;;4998644;28;20029;-85
2021/07/25 05:41:20;;;;;;;12.38;10.00;;;19.40;94.70;;;;;;4997845;28;20014;-85
2021/07/25 05:43:46;;;;;;;11.82;10.20;;;19.50;94.80;;;;;;4968230;28;20113;-85
2021/07/25 05:46:12;;;;;;;11.02;9.70;;;19.50;94.70;;;;;;4986837;28;20054;-84
2021/07/25 05:48:37;;;;;;;11.45;9.57;;;19.50;94.70;;;;;;4996519;28;20026;-85
2021/07/25 05:51:03;;;;;;;10.80;9.13;;;19.50;94.70;;;;;;4995983;28;20030;-85
2021/07/25 05:53:49;;;;;;;10.82;9.45;;;19.60;94.70;;;;;;4993237;28;20400;-84
2021/07/25 05:56:15;;;;;;;12.65;9.20;;;19.60;94.70;;;;;;4971339;28;20032;-85
2021/07/25 05:58:41;;;;;;;11.75;9.52;;;19.70;94.60;;;;;;4960413;28;20030;-85
2021/07/25 06:01:16;;;;;;;11.75;9.30;;;19.70;94.50;;;;;;4963649;28;20030;-84
2021/07/25 06:03:42;;;;;;;11.63;9.23;;;19.70;94.50;;;;;;4979196;28;20026;-84
2021/07/25 06:06:08;;;;;;;10.55;8.77;;;19.70;94.50;;;;;;4963778;28;20068;-84
2021/07/25 06:08:34;;;;;;;9.93;8.10;;;19.70;94.50;;;;;;4982114;28;20475;-84
2021/07/25 06:10:59;;;;;;;10.60;9.07;;;19.70;94.40;;;;;;4976535;28;20049;-84
2021/07/25 06:13:25;;;;;;;10.95;8.73;;;19.70;94.70;;;;;;4980068;28;20080;-84
2021/07/25 06:15:51;;;;;;;11.30;7.85;;;19.70;94.40;;;;;;4979576;28;20075;-85
2021/07/25 06:18:16;;;;;;;11.60;7.80;;;19.80;94.60;;;;;;4979702;28;20518;-85
2021/07/25 06:20:42;;;;;;;10.40;8.02;;;19.80;94.40;;;;;;4995582;28;20042;-85
2021/07/25 06:23:09;;;;;;;11.23;7.80;;;19.80;94.40;;;;;;4979504;28;20038;-84
2021/07/25 06:25:35;;;;;;;9.82;7.00;;;19.80;94.30;;;;;;4980958;28;20022;-84
2021/07/25 06:28:04;;;;;;;9.10;7.00;;;19.90;94.30;;;;;;5000134;28;20037;-84
2021/07/25 06:30:30;;;;;;;9.45;7.22;;;19.90;94.30;;;;;;5007405;28;20029;-84
2021/07/25 06:33:02;;;;;;;9.15;7.18;;;19.90;94.30;;;;;;5023772;28;20106;-84
2021/07/25 06:35:30;;;;;;;9.07;7.05;;;19.90;94.20;;;;;;5025360;28;20030;-84
2021/07/25 06:37:57;;;;;;;11.73;8.35;;;20.00;94.20;;;;;;4978263;28;20003;-84
2021/07/25 06:40:25;;;;;;;9.05;7.60;;;20.00;94.10;;;;;;5021088;28;20114;-84
2021/07/25 06:42:51;;;;;;;10.77;7.47;;;20.00;94.10;;;;;;4979638;28;20475;-84
2021/07/25 06:45:17;;;;;;;10.20;7.97;;;20.00;94.20;;;;;;4980964;28;20029;-85
2021/07/25 06:47:47;;;;;;;10.45;7.32;;;20.10;94.20;;;;;;4996207;28;20044;-85
2021/07/25 06:50:13;;;;;;;11.48;7.47;;;20.10;94.20;;;;;;4981690;28;20033;-85
2021/07/25 06:52:39;;;;;;;8.90;7.15;;;20.10;94.30;;;;;;4969947;28;20030;-85
2021/07/25 06:55:07;;;;;;;8.80;7.28;;;20.10;94.20;;;;;;4973976;28;20038;-85
2021/07/25 07:00:55;;;;;;;9.05;6.80;;;20.20;94.10;;;;;;5009654;28;20064;-84
2021/07/25 07:03:21;;;;;;;10.48;7.30;;;20.30;94.10;;;;;;4964639;28;20542;-85
2021/07/25 07:05:47;;;;;;;9.38;7.72;;;20.30;94.10;;;;;;4963261;28;20458;-85
2021/07/25 07:08:13;;;;;;;9.20;6.80;;;20.40;93.90;;;;;;4977362;28;20096;-84
2021/07/25 07:10:45;;;;;;;8.77;6.40;;;20.40;93.90;;;;;;5008211;28;20037;-85
2021/07/25 07:13:13;;;;;;;8.13;5.78;;;20.50;94.20;;;;;;4995173;28;20029;-85
2021/07/25 07:15:41;;;;;;;9.98;6.78;;;20.60;93.90;;;;;;4998230;28;20501;-85
2021/07/25 07:18:07;;;;;;;9.68;6.80;;;20.60;93.80;;;;;;5005680;28;20048;-85
2021/07/25 07:20:33;;;;;;;8.90;6.45;;;20.60;93.70;;;;;;5000208;28;20499;-84
2021/07/25 07:23:03;;;;;;;8.57;6.22;;;20.70;93.60;;;;;;4993179;28;20467;-84
2021/07/25 07:25:38;;;;;;;7.43;5.70;;;20.70;93.60;;;;;;5030666;28;20001;-85
2021/07/25 07:28:04;;;;;;;8.07;5.43;;;20.80;93.50;;;;;;5036822;28;20032;-85
2021/07/25 07:30:30;;;;;;;8.18;5.90;;;20.90;93.60;;;;;;5024343;28;20037;-84
2021/07/25 07:33:05;;;;;;;7.13;5.45;;;20.90;93.50;;;;;;4994785;28;20033;-85
2021/07/25 07:35:31;;;;;;;9.45;6.68;;;21.00;93.50;;;;;;5011571;28;20022;-85
2021/07/25 07:37:57;;;;;;;9.35;6.35;;;21.10;93.20;;;;;;5024921;28;20056;-85
2021/07/25 07:40:22;;;;;;;8.55;5.55;;;21.20;93.20;;;;;;5014706;28;20030;-85
2021/07/25 07:42:48;;;;;;;7.90;6.28;;;21.20;93.20;;;;;;5012369;28;20030;-85
2021/07/25 07:45:18;;;;;;;8.55;5.88;;;21.30;93.10;;;;;;5050199;28;20365;-85
2021/07/25 07:47:44;;;;;;;9.10;6.20;;;21.40;92.80;;;;;;5054608;28;20021;-85
2021/07/25 07:50:10;;;;;;;10.68;6.60;;;21.40;92.60;;;;;;4998309;28;20030;-85
2021/07/25 07:52:36;;;;;;;9.65;5.80;;;21.40;91.90;;;;;;5019068;28;20030;-85
2021/07/25 07:55:03;;;;;;;7.93;5.43;;;21.50;92.00;;;;;;5007144;28;20025;-85
2021/07/25 07:57:28;;;;;;;9.95;6.75;;;21.60;92.20;;;;;;5010207;28;20077;-85
2021/07/25 07:59:55;;;;;;;8.10;6.25;;;21.60;92.20;;;;;;5007970;28;20037;-84
2021/07/25 08:02:21;;;;;;;8.95;5.85;;;21.70;92.00;;;;;;5067131;28;20028;-84
2021/07/25 08:04:46;;;;;;;8.43;5.30;;;21.80;92.00;;;;;;5007790;28;20038;-85
2021/07/25 08:07:12;;;;;;;8.07;5.88;;;21.80;91.90;;;;;;4999487;28;20026;-85
2021/07/25 08:09:38;;;;;;;7.88;5.85;;;21.90;91.40;;;;;;5028635;28;20036;-85
2021/07/25 08:12:06;;;;;;;8.45;5.90;;;22.00;91.40;;;;;;5024354;28;20033;-84
2021/07/25 08:14:33;;;;;;;8.30;5.47;;;22.00;91.40;;;;;;5056458;28;20013;-85
2021/07/25 08:16:59;;;;;;;9.43;5.88;;;22.10;91.30;;;;;;5048857;28;20014;-85
2021/07/25 08:19:25;;;;;;;7.32;4.65;;;22.20;91.20;;;;;;5016317;28;20552;-84
2021/07/25 08:21:51;;;;;;;7.30;5.40;;;22.30;91.30;;;;;;5004749;28;20057;-85
2021/07/25 08:24:16;;;;;;;8.80;6.15;;;22.30;91.10;;;;;;4999488;28;20128;-85
2021/07/25 08:26:42;;;;;;;8.32;5.75;;;22.40;90.70;;;;;;5030277;28;20046;-84
2021/07/25 08:29:08;;;;;;;9.00;5.60;;;22.50;90.50;;;;;;5003130;28;20044;-84
2021/07/25 08:31:34;;;;;;;7.53;5.38;;;22.60;90.70;;;;;;4978883;28;20033;-84
2021/07/25 08:33:59;;;;;;;7.47;5.22;;;22.60;90.60;;;;;;4989013;28;20029;-85
2021/07/25 08:36:25;;;;;;;9.38;6.15;;;22.70;90.50;;;;;;5008289;28;20026;-84
2021/07/25 08:38:51;;;;;;;10.55;5.90;;;22.80;90.40;;;;;;5007443;28;20018;-84
2021/07/25 08:41:41;;;;;;;8.23;5.80;;;22.80;90.20;;;;;;4998226;28;20025;-84
2021/07/25 08:44:34;;;;;;;9.68;6.13;;;22.90;90.10;;;;;;5011898;28;20033;-85
2021/07/25 08:47:01;;;;;;;8.02;5.70;;;23.00;89.90;;;;;;5004505;28;20116;-85
2021/07/25 08:49:46;;;;;;;7.10;5.75;;;23.10;89.90;;;;;;5021559;28;20132;-84
2021/07/25 08:52:22;;;;;;;7.00;5.63;;;23.20;90.00;;;;;;5004587;28;20096;-83
2021/07/25 08:54:48;;;;;;;7.45;5.10;;;23.30;89.30;;;;;;5028714;28;20026;-83
2021/07/25 08:57:17;;;;;;;6.63;5.22;;;23.30;89.20;;;;;;4994974;28;20098;-82
2021/07/25 08:59:45;;;;;;;7.78;5.70;;;23.40;89.20;;;;;;5028655;28;20052;-82
2021/07/25 09:02:18;;;;;;;7.57;5.85;;;23.40;88.20;;;;;;5016365;28;20026;-82
2021/07/25 09:04:45;;;;;;;6.40;5.10;;;23.50;87.70;;;;;;5018153;28;20022;-83
2021/07/25 09:07:11;;;;;;;7.57;6.05;;;23.50;87.60;;;;;;5003997;28;20026;-83
2021/07/25 09:09:38;;;;;;;6.65;5.38;;;23.50;85.50;;;;;;5006768;28;20047;-83
2021/07/25 09:12:04;;;;;;;6.60;4.90;;;23.50;86.40;;;;;;4999311;28;20018;-83
2021/07/25 09:14:30;;;;;;;5.97;4.32;;;23.60;86.80;;;;;;4993872;28;20019;-83
2021/07/25 09:16:56;;;;;;;5.43;4.53;;;23.70;87.20;;;;;;5014799;28;20048;-83
2021/07/25 09:19:22;;;;;;;6.47;4.90;;;23.80;86.50;;;;;;4999528;28;20026;-84
2021/07/25 09:21:50;;;;;;;8.93;5.82;;;23.80;86.20;;;;;;4999213;28;20069;-83
2021/07/25 09:24:32;;;;;;;7.43;5.40;;;23.90;85.00;;;;;;5031373;28;20026;-82
2021/07/25 09:27:02;;;;;;;6.65;5.28;;;23.90;84.70;;;;;;5042460;28;20028;-82
2021/07/25 09:29:34;;;;;;;6.65;5.20;;;24.00;85.00;;;;;;5020853;28;20034;-82
2021/07/25 09:32:14;;;;;;;6.97;5.13;;;24.00;83.50;;;;;;5034598;28;20025;-83
2021/07/25 09:34:42;;;;;;;9.20;5.50;;;24.10;82.10;;;;;;5031058;28;20025;-83
2021/07/25 09:37:21;;;;;;;6.50;5.28;;;24.10;83.50;;;;;;5016328;28;20035;-83
2021/07/25 09:39:55;;;;;;;7.07;4.97;;;24.20;83.60;;;;;;5015156;28;20010;-83
2021/07/25 09:42:31;;;;;;;7.82;5.75;;;24.20;84.40;;;;;;5034494;28;20026;-82
2021/07/25 09:44:59;;;;;;;6.22;4.32;;;24.30;82.70;;;;;;5029767;28;20033;-82
2021/07/25 09:47:28;;;;;;;7.60;5.30;;;24.40;82.70;;;;;;5015935;28;20172;-83
2021/07/25 09:49:57;;;;;;;6.13;4.72;;;24.40;81.90;;;;;;5012023;28;20037;-82
2021/07/25 09:52:41;;;;;;;5.90;4.35;;;24.50;82.50;;;;;;5030509;28;20036;-83
2021/07/25 09:55:08;;;;;;;6.82;4.53;;;24.60;81.60;;;;;;5026386;28;20026;-82
2021/07/25 09:57:37;;;;;;;5.85;4.07;;;24.60;82.30;;;;;;4990061;28;20046;-82
2021/07/25 10:00:12;;;;;;;6.93;4.45;;;24.70;82.70;;;;;;5044015;28;20042;-82
2021/07/25 10:02:41;;;;;;;6.13;4.45;;;24.80;83.10;;;;;;5031317;28;20037;-82
2021/07/25 10:05:10;;;;;;;7.95;5.10;;;24.90;83.20;;;;;;5034631;28;20057;-83
2021/07/25 10:07:36;;;;;;;6.07;4.57;;;24.90;82.70;;;;;;5016040;28;20040;-83
2021/07/25 10:10:04;;;;;;;8.43;5.45;;;25.00;82.70;;;;;;4984381;28;20022;-83
2021/07/25 10:12:35;;;;;;;6.50;4.95;;;25.10;81.60;;;;;;5038137;28;20093;-83
2021/07/25 10:15:02;;;;;;;6.80;5.40;;;25.10;81.60;;;;;;5011852;28;20029;-83
2021/07/25 10:17:33;;;;;;;5.85;4.43;;;25.20;81.50;;;;;;5020269;28;20054;-85
2021/07/25 10:20:01;;;;;;;6.65;4.60;;;25.30;81.80;;;;;;5015080;23;20026;-89
2021/07/25 10:22:31;;;;;;;6.72;4.90;;;25.40;82.00;;;;;;5017369;28;20033;-89
2021/07/25 10:24:59;;;;;;;7.35;4.53;;;25.40;81.80;;;;;;5007599;28;20105;-88
2021/07/25 10:27:25;;;;;;;6.97;5.40;;;25.50;81.60;;;;;;4997724;28;20014;-88
2021/07/25 10:29:53;;;;;;;6.55;4.60;;;25.50;80.90;;;;;;5008716;28;20383;-88
2021/07/25 10:32:20;;;;;;;6.22;4.47;;;25.60;81.10;;;;;;4993605;28;20029;-88
2021/07/25 10:34:47;;;;;;;7.10;5.18;;;25.70;81.60;;;;;;5016051;28;20017;-88
2021/07/25 10:37:13;;;;;;;7.80;5.97;;;25.70;80.20;;;;;;4987599;28;20025;-88
2021/07/25 10:39:49;;;;;;;7.03;5.13;;;25.80;79.80;;;;;;5011248;28;20053;-88
2021/07/25 10:42:26;;;;;;;10.20;5.18;;;25.80;79.50;;;;;;5021646;28;20029;-88
2021/07/25 10:44:53;;;;;;;7.70;5.28;;;25.80;79.30;;;;;;5017883;28;20025;-88
2021/07/25 10:47:26;;;;;;;7.32;5.30;;;25.80;78.60;;;;;;4999208;28;20509;-88
2021/07/25 10:49:57;;;;;;;6.80;4.95;;;25.80;78.20;;;;;;5015097;28;20034;-88
2021/07/25 10:52:22;;;;;;;6.15;4.60;;;25.80;78.60;;;;;;4996148;28;20072;-88
2021/07/25 10:54:48;;;;;;;7.57;4.15;;;25.80;79.10;;;;;;5010850;28;20494;-88
2021/07/25 10:57:15;;;;;;;6.82;4.55;;;25.80;78.40;;;;;;4998761;28;20033;-88
2021/07/25 10:59:59;;;;;;;6.45;4.40;;;25.80;78.60;;;;;;4996234;28;20128;-88
2021/07/25 11:02:25;;;;;;;5.88;4.20;;;25.80;78.90;;;;;;4999051;28;20096;-89
2021/07/25 11:04:51;;;;;;;6.70;4.72;;;25.80;78.90;;;;;;5015292;28;20061;-88
2021/07/25 11:07:33;;;;;;;5.80;4.30;;;25.80;78.60;;;;;;5014977;28;20034;-88
2021/07/25 11:10:02;;;;;;;6.95;4.10;;;25.80;78.80;;;;;;4980238;28;20479;-89
2021/07/25 11:12:56;;;;;;;6.60;4.43;;;25.80;79.30;;;;;;5008766;28;20022;-88
2021/07/25 11:15:32;;;;;;;4.32;3.55;;;25.80;79.50;;;;;;4999411;28;20109;-88
2021/07/25 11:18:08;;;;;;;6.50;4.20;;;25.80;79.70;;;;;;5012135;28;20033;-88
2021/07/25 11:20:59;;;;;;;5.70;3.80;;;25.90;79.50;;;;;;5028707;28;20044;-88
2021/07/25 11:23:35;;;;;;;7.38;4.03;;;26.00;79.30;;;;;;5021826;28;20120;-89
2021/07/25 11:26:34;;;;;;;5.40;3.65;;;26.00;79.10;;;;;;4986545;28;20390;-88
2021/07/25 11:29:02;;;;;;;5.85;4.15;;;26.10;77.90;;;;;;5012945;28;20510;-88
2021/07/25 11:31:42;;;;;;;4.45;3.30;;;26.20;77.70;;;;;;5006514;28;20014;-88
2021/07/25 11:34:14;;;;;;;5.07;3.53;;;26.20;77.80;;;;;;5005976;28;20034;-87
2021/07/25 11:36:40;;;;;;;5.45;3.50;;;26.30;77.80;;;;;;5019054;28;20022;-88
2021/07/25 11:39:07;;;;;;;6.10;3.85;;;26.30;77.60;;;;;;5005143;28;20037;-89
2021/07/25 11:41:38;;;;;;;6.07;3.67;;;26.40;76.80;;;;;;5008259;28;20540;-87
2021/07/25 11:44:04;;;;;;;6.72;3.72;;;26.40;77.00;;;;;;5025649;28;20026;-88
2021/07/25 11:46:34;;;;;;;5.05;3.85;;;26.40;76.40;;;;;;5019181;28;20387;-86
2021/07/25 11:49:10;;;;;;;;;;;26.40;76.30;;;;;;5019104;28;20382;-85
2021/07/25 11:51:41;;;;;;;5.47;3.55;;;26.50;76.40;;;;;;5036540;28;19916;-84
2021/07/25 11:54:07;;;;;;;5.38;3.38;;;26.50;77.30;;;;;;5019280;28;20120;-84
2021/07/25 11:56:33;;;;;;;7.28;3.90;;;26.50;76.40;;;;;;5005006;28;20131;-84
2021/07/25 11:59:02;;;;;;;4.07;3.28;;;26.50;76.50;;;;;;5007470;28;20041;-84
2021/07/25 12:01:29;;;;;;;5.82;3.47;;;26.50;76.20;;;;;;5000573;28;20025;-84
2021/07/25 12:03:55;;;;;;;5.22;3.80;;;26.60;76.60;;;;;;5018660;28;20364;-85
2021/07/25 12:06:20;;;;;;;6.63;3.28;;;26.70;77.00;;;;;;5003591;28;20383;-85
2021/07/25 12:09:06;;;;;;;4.78;3.45;;;26.70;77.00;;;;;;5001990;28;20022;-84
2021/07/25 12:11:37;;;;;;;5.65;3.45;;;26.80;76.70;;;;;;5043935;28;20128;-85
2021/07/25 12:14:03;;;;;;;;;;;26.80;76.40;;;;;;4997300;28;20036;-85
2021/07/25 12:16:45;;;;;;;5.85;3.13;;;26.90;74.90;;;;;;5032861;28;19905;-85
2021/07/25 12:19:15;;;;;;;6.00;2.80;;;27.00;75.20;;;;;;5021017;28;20017;-85
2021/07/25 12:21:41;;;;;;;4.50;2.80;;;27.00;75.00;;;;;;5031546;28;20091;-85
2021/07/25 12:24:29;;;;;;;5.00;2.97;;;27.10;75.00;;;;;;5021242;28;20021;-85
2021/07/25 12:26:56;;;;;;;3.75;2.92;;;27.10;74.50;;;;;;5037669;28;20017;-85
2021/07/25 12:29:42;;;;;;;3.05;2.50;;;27.10;74.20;;;;;;5021032;28;20052;-85
2021/07/25 12:32:28;;;;;;;4.72;3.10;;;27.20;74.50;;;;;;5037322;28;20021;-85
2021/07/25 12:35:31;;;;;;;5.60;2.90;;;27.20;73.70;;;;;;5036649;28;20029;-86
2021/07/25 12:38:00;;;;;;;5.20;3.00;;;27.20;72.40;;;;;;5034722;28;20071;-86
2021/07/25 12:40:30;;;;;;;4.03;2.88;;;27.20;71.90;;;;;;5025660;28;20025;-87
2021/07/25 12:42:56;;;;;;;3.47;2.72;;;27.20;72.60;;;;;;5018145;28;20034;-87
2021/07/25 12:45:26;;;;;;;4.25;2.80;;;27.20;73.00;;;;;;5034298;28;20082;-86
2021/07/25 12:48:20;;;;;;;5.55;3.17;;;27.20;74.00;;;;;;5037005;28;20116;-86
2021/07/25 12:53:52;;;;;;;6.18;2.72;;;27.10;73.70;;;;;;5027391;28;20417;-87
2021/07/25 12:56:19;;;;;;;3.47;2.60;;;27.20;73.90;;;;;;5035679;28;20028;-86